Time;durP1;ratioP1;P1;durP2;ratioP2;P2;SDS_P1;SDS_P2;PMS_P1;PMS_P2;Temp;Humidity;BMP_temperature;BMP_pressure;BME280_temperature;BME280_humidity;BME280_pressure;Samples;Min_cycle;Max_cycle;Signal;HPM_P1;HPM_P2
2023/03/24 00:00:22;;;;;;;7.33;5.03;;;12.50;99.90;;;;;;5030894;28;20149;-65
2023/03/24 00:02:50;;;;;;;7.80;5.22;;;12.60;99.90;;;;;;5030610;28;20264;-69
2023/03/24 00:05:18;;;;;;;8.32;5.75;;;12.60;99.90;;;;;;5030699;28;20037;-70
2023/03/24 00:07:45;;;;;;;7.55;5.68;;;12.50;99.90;;;;;;5030474;28;20051;-70
2023/03/24 00:10:16;;;;;;;10.45;5.82;;;12.60;99.90;;;;;;5012656;28;20029;-69
2023/03/24 00:12:45;;;;;;;9.52;5.38;;;12.50;99.90;;;;;;5030882;28;20463;-70
2023/03/24 00:15:15;;;;;;;6.88;4.97;;;12.50;99.90;;;;;;5030607;28;20033;-69
2023/03/24 00:17:42;;;;;;;6.47;5.03;;;12.50;99.90;;;;;;5030542;28;20041;-69
2023/03/24 00:20:16;;;;;;;;;;;12.60;99.90;;;;;;5030995;28;20052;-69
2023/03/24 00:22:48;;;;;;;7.03;4.90;;;12.70;99.90;;;;;;5030584;28;19959;-71
2023/03/24 00:25:19;;;;;;;8.13;5.05;;;12.80;99.90;;;;;;5030681;28;20489;-68
2023/03/24 00:27:47;;;;;;;7.35;4.38;;;12.80;99.90;;;;;;5030812;28;20116;-70
2023/03/24 00:30:15;;;;;;;9.38;5.00;;;12.80;99.90;;;;;;5030367;28;20140;-69
2023/03/24 00:32:41;;;;;;;7.97;4.82;;;12.80;99.90;;;;;;5030571;28;20044;-70
2023/03/24 00:35:09;;;;;;;9.07;5.05;;;12.80;99.90;;;;;;5030247;28;20041;-70
2023/03/24 00:37:38;;;;;;;7.43;5.03;;;12.80;99.90;;;;;;5030541;28;20048;-71
2023/03/24 00:40:15;;;;;;;7.22;4.60;;;12.80;99.90;;;;;;5030345;28;20048;-70
2023/03/24 00:42:46;;;;;;;6.20;4.65;;;12.80;99.90;;;;;;5012318;28;20411;-69
2023/03/24 00:45:18;;;;;;;7.97;4.10;;;12.80;99.90;;;;;;5012279;28;20040;-70
2023/03/24 00:47:45;;;;;;;7.90;4.63;;;12.90;99.90;;;;;;5012851;28;20118;-70
2023/03/24 00:50:16;;;;;;;5.72;4.13;;;12.90;99.90;;;;;;5030295;28;20025;-70
2023/03/24 00:52:46;;;;;;;6.78;4.03;;;12.90;99.90;;;;;;5030648;28;20029;-70
2023/03/24 00:55:14;;;;;;;11.52;4.13;;;12.90;99.90;;;;;;5030265;28;20049;-70
2023/03/24 00:57:48;;;;;;;5.93;3.97;;;12.90;99.90;;;;;;5030453;28;20025;-69
2023/03/24 01:00:20;;;;;;;6.57;4.20;;;12.90;99.90;;;;;;5030157;28;20147;-70
2023/03/24 01:02:52;;;;;;;6.63;4.03;;;13.00;99.90;;;;;;5030485;28;20498;-70
2023/03/24 01:05:29;;;;;;;5.40;3.90;;;13.00;99.90;;;;;;5030030;28;20108;-69
2023/03/24 01:07:57;;;;;;;5.90;3.65;;;12.90;99.90;;;;;;5030159;28;20104;-69
2023/03/24 01:10:29;;;;;;;6.90;4.32;;;12.90;99.90;;;;;;5030025;28;20116;-69
2023/03/24 01:12:57;;;;;;;6.82;4.40;;;12.90;99.90;;;;;;5030120;28;20021;-69
2023/03/24 01:15:28;;;;;;;7.43;4.63;;;12.90;99.90;;;;;;5030132;28;20113;-70
2023/03/24 01:17:55;;;;;;;5.32;3.70;;;12.90;99.90;;;;;;5029834;28;20034;-68
2023/03/24 01:20:23;;;;;;;11.27;4.10;;;12.90;99.90;;;;;;5030056;28;20493;-67
2023/03/24 01:22:50;;;;;;;6.65;3.88;;;12.90;99.90;;;;;;5030363;28;20076;-70
2023/03/24 01:25:21;;;;;;;7.03;4.32;;;12.80;99.90;;;;;;5033584;28;20068;-69
2023/03/24 01:27:50;;;;;;;6.78;4.53;;;12.80;99.90;;;;;;5033693;28;20034;-70
2023/03/24 01:30:22;;;;;;;6.63;4.68;;;12.80;99.90;;;;;;5033343;28;20032;-70
2023/03/24 01:32:49;;;;;;;6.75;4.72;;;12.70;99.90;;;;;;5033773;28;20104;-70
2023/03/24 01:35:16;;;;;;;7.78;5.00;;;12.70;99.90;;;;;;5033451;28;20040;-68
2023/03/24 01:37:42;;;;;;;;;;;12.50;99.90;;;;;;5033948;28;20154;-68
2023/03/24 01:40:13;;;;;;;6.82;4.10;;;12.50;99.90;;;;;;5033154;28;20349;-68
2023/03/24 01:42:39;;;;;;;5.82;4.05;;;12.50;99.90;;;;;;5031835;28;20411;-69
2023/03/24 01:45:43;;;;;;;8.50;4.65;;;12.50;99.90;;;;;;5031985;28;20084;-69
2023/03/24 01:48:19;;;;;;;5.20;3.53;;;12.50;99.90;;;;;;5052966;28;20090;-69
2023/03/24 01:50:50;;;;;;;7.28;4.05;;;12.60;99.90;;;;;;5034952;28;20366;-69
2023/03/24 01:53:17;;;;;;;5.72;4.10;;;12.60;99.90;;;;;;5052508;28;20063;-69
2023/03/24 01:55:47;;;;;;;5.70;4.03;;;12.50;99.90;;;;;;5052716;28;20341;-69
2023/03/24 01:58:15;;;;;;;5.85;4.30;;;12.50;99.90;;;;;;5052793;28;20063;-69
2023/03/24 02:00:42;;;;;;;7.05;4.28;;;12.50;99.90;;;;;;5052820;28;20021;-69
2023/03/24 02:03:13;;;;;;;6.63;4.30;;;12.60;99.90;;;;;;5053121;28;20108;-69
2023/03/24 02:05:44;;;;;;;5.20;3.88;;;12.50;99.90;;;;;;5035623;28;20040;-70
2023/03/24 02:08:19;;;;;;;6.38;3.90;;;12.60;99.90;;;;;;5046519;28;20056;-70
2023/03/24 02:10:47;;;;;;;5.35;3.70;;;12.60;99.90;;;;;;5015347;28;20080;-69
2023/03/24 02:13:13;;;;;;;5.30;3.88;;;12.60;99.90;;;;;;5032676;28;20096;-69
2023/03/24 02:16:17;;;;;;;5.05;3.58;;;12.70;99.90;;;;;;5032851;28;20030;-69
2023/03/24 02:19:11;;;;;;;6.03;3.72;;;12.80;99.90;;;;;;5032826;28;20030;-69
2023/03/24 02:22:04;;;;;;;4.70;3.35;;;12.80;99.90;;;;;;5014753;28;20385;-69
2023/03/24 02:25:11;;;;;;;5.72;3.95;;;12.80;99.90;;;;;;5032553;28;20116;-70
2023/03/24 02:27:47;;;;;;;6.97;4.32;;;12.80;99.90;;;;;;5032933;28;20033;-69
2023/03/24 02:30:49;;;;;;;4.90;3.92;;;12.80;99.90;;;;;;5032896;28;20087;-70
2023/03/24 02:33:33;;;;;;;5.93;3.67;;;12.80;99.90;;;;;;5032345;28;20113;-69
2023/03/24 02:36:39;;;;;;;4.68;3.30;;;12.90;99.90;;;;;;5032904;28;20112;-70
2023/03/24 02:39:28;;;;;;;;;;;12.90;99.90;;;;;;5046392;28;20021;-69
2023/03/24 02:42:20;;;;;;;6.78;3.63;;;12.80;99.90;;;;;;5052649;28;19909;-69
2023/03/24 02:44:46;;;;;;;5.47;3.60;;;12.80;99.90;;;;;;5034067;28;20094;-69
2023/03/24 02:47:24;;;;;;;5.97;4.00;;;12.70;99.90;;;;;;5051863;28;20164;-70
2023/03/24 02:50:17;;;;;;;5.80;4.22;;;12.70;99.90;;;;;;5052344;28;20032;-70
2023/03/24 02:52:58;;;;;;;6.28;4.18;;;12.70;99.90;;;;;;5050827;28;20072;-69
2023/03/24 02:55:35;;;;;;;5.60;3.97;;;12.70;99.90;;;;;;5052132;28;20082;-69
2023/03/24 02:58:10;;;;;;;9.80;3.67;;;12.70;99.90;;;;;;5034338;28;20062;-69
2023/03/24 03:00:51;;;;;;;6.50;4.10;;;12.70;99.90;;;;;;5033694;28;20036;-68
2023/03/24 03:03:30;;;;;;;6.30;3.92;;;12.80;99.90;;;;;;5052125;28;20536;-71
2023/03/24 03:06:07;;;;;;;6.30;4.30;;;12.70;99.90;;;;;;5051935;28;20024;-71
2023/03/24 03:08:35;;;;;;;5.93;4.20;;;12.70;99.90;;;;;;5051722;28;20343;-69
2023/03/24 03:11:04;;;;;;;5.57;3.88;;;12.70;99.90;;;;;;5044850;28;20056;-69
2023/03/24 03:13:37;;;;;;;6.05;3.72;;;12.60;99.90;;;;;;5023586;28;20029;-70
2023/03/24 03:16:10;;;;;;;7.10;3.33;;;12.50;99.90;;;;;;5012336;28;20041;-70
2023/03/24 03:18:42;;;;;;;6.63;3.08;;;12.40;99.90;;;;;;5029853;28;20021;-68
2023/03/24 03:21:12;;;;;;;7.40;4.63;;;12.40;99.90;;;;;;5041930;28;20400;-69
2023/03/24 03:23:48;;;;;;;6.43;4.25;;;12.40;99.90;;;;;;5049653;28;20032;-65
2023/03/24 03:26:21;;;;;;;5.88;3.80;;;12.40;99.90;;;;;;5024297;28;20037;-68
2023/03/24 03:28:56;;;;;;;5.90;3.53;;;12.40;99.90;;;;;;5049321;28;20033;-70
2023/03/24 03:31:49;;;;;;;8.57;4.13;;;12.50;99.90;;;;;;5045111;28;20039;-65
2023/03/24 03:34:51;;;;;;;5.75;3.95;;;12.50;99.90;;;;;;5042943;28;20033;-65
2023/03/24 03:37:31;;;;;;;5.97;4.03;;;12.50;99.90;;;;;;5042421;28;20100;-64
2023/03/24 03:40:08;;;;;;;6.00;3.83;;;12.50;99.90;;;;;;5036459;28;20446;-69
2023/03/24 03:42:35;;;;;;;6.80;4.03;;;12.40;99.90;;;;;;5043946;28;20450;-69
2023/03/24 03:45:03;;;;;;;6.45;4.53;;;12.30;99.90;;;;;;5050792;28;20082;-69
2023/03/24 03:47:30;;;;;;;6.38;3.80;;;12.30;99.90;;;;;;5050524;28;20470;-71
2023/03/24 03:49:56;;;;;;;;;;;12.30;99.90;;;;;;5050832;28;20468;-69
2023/03/24 03:52:22;;;;;;;5.40;4.13;;;12.20;99.90;;;;;;5050443;28;19923;-69
2023/03/24 03:54:50;;;;;;;5.67;3.70;;;12.20;99.90;;;;;;5050482;28;20067;-69
2023/03/24 03:57:19;;;;;;;6.10;4.15;;;12.20;99.90;;;;;;5050388;28;20079;-70
2023/03/24 03:59:45;;;;;;;5.85;4.07;;;12.30;99.90;;;;;;5050585;28;20083;-69
2023/03/24 04:02:53;;;;;;;5.10;3.77;;;12.40;99.90;;;;;;5050682;28;20074;-70
2023/03/24 04:05:37;;;;;;;4.80;3.50;;;12.60;99.90;;;;;;5050828;28;20276;-70
2023/03/24 04:08:12;;;;;;;5.97;3.58;;;12.60;99.90;;;;;;5051134;28;20047;-72
2023/03/24 04:11:22;;;;;;;5.50;3.72;;;12.50;99.90;;;;;;5051112;28;20029;-70
2023/03/24 04:14:04;;;;;;;6.35;3.90;;;12.50;99.90;;;;;;5051055;28;20028;-69
2023/03/24 04:16:58;;;;;;;5.20;3.38;;;12.70;99.90;;;;;;5033020;28;20120;-69
2023/03/24 04:19:46;;;;;;;5.80;3.38;;;12.70;99.90;;;;;;5051092;28;20032;-70
2023/03/24 04:22:42;;;;;;;6.15;4.07;;;12.70;99.90;;;;;;5033177;28;20067;-71
2023/03/24 04:25:14;;;;;;;5.65;4.20;;;12.70;99.90;;;;;;4990838;28;20034;-70
2023/03/24 04:27:55;;;;;;;6.97;3.85;;;12.70;99.90;;;;;;4990561;28;20038;-71
2023/03/24 04:30:38;;;;;;;5.28;3.33;;;12.60;99.90;;;;;;4990447;28;20030;-71
2023/03/24 04:33:45;;;;;;;5.80;3.95;;;12.50;99.90;;;;;;4990256;28;20305;-69
2023/03/24 04:36:54;;;;;;;8.43;4.25;;;12.40;99.90;;;;;;4989669;28;20046;-69
2023/03/24 04:39:27;;;;;;;5.80;3.63;;;12.40;99.90;;;;;;4927564;28;20030;-69
2023/03/24 04:42:00;;;;;;;7.32;4.05;;;12.30;99.90;;;;;;4990446;28;20038;-70
2023/03/24 04:44:29;;;;;;;5.65;4.03;;;12.20;99.90;;;;;;4990143;28;20049;-69
2023/03/24 04:47:01;;;;;;;6.30;4.10;;;12.10;99.90;;;;;;4973829;28;20058;-64
2023/03/24 04:49:28;;;;;;;6.22;4.15;;;12.10;99.90;;;;;;4960700;28;20031;-67
2023/03/24 04:51:54;;;;;;;5.80;4.03;;;12.00;99.90;;;;;;4975311;28;20383;-69
2023/03/24 04:54:24;;;;;;;5.90;4.27;;;12.10;99.90;;;;;;4969544;28;20652;-65
2023/03/24 04:57:00;;;;;;;7.10;4.13;;;12.10;99.90;;;;;;5021115;28;20284;-70
2023/03/24 04:59:32;;;;;;;6.97;4.55;;;12.20;99.90;;;;;;5016810;28;20064;-66
2023/03/24 05:02:00;;;;;;;6.43;4.35;;;12.20;99.90;;;;;;5037669;28;20033;-68
2023/03/24 05:04:29;;;;;;;6.22;4.53;;;12.20;99.90;;;;;;5040998;28;20037;-70
2023/03/24 05:06:57;;;;;;;5.65;4.43;;;12.10;99.90;;;;;;4994909;28;20040;-69
2023/03/24 05:09:26;;;;;;;8.02;4.53;;;12.10;99.90;;;;;;5025985;28;20025;-70
2023/03/24 05:11:54;;;;;;;9.63;4.85;;;12.00;99.90;;;;;;5054964;28;20108;-70
2023/03/24 05:14:20;;;;;;;9.90;4.82;;;11.80;99.90;;;;;;5030814;28;20506;-69
2023/03/24 05:16:46;;;;;;;6.67;5.00;;;11.90;99.90;;;;;;5035408;28;20149;-69
2023/03/24 05:19:17;;;;;;;7.50;4.28;;;11.90;99.90;;;;;;5035265;28;20283;-71
2023/03/24 05:21:44;;;;;;;8.65;4.82;;;11.90;99.90;;;;;;5035429;28;20100;-70
2023/03/24 05:24:11;;;;;;;;;;;12.00;99.90;;;;;;5035723;28;20025;-70
2023/03/24 05:26:37;;;;;;;5.82;3.97;;;12.00;99.90;;;;;;5035447;28;19905;-69
2023/03/24 05:29:03;;;;;;;7.22;4.43;;;12.00;99.90;;;;;;5035798;28;20454;-68
2023/03/24 05:31:30;;;;;;;5.93;4.47;;;11.90;99.90;;;;;;5017433;28;20512;-68
2023/03/24 05:34:04;;;;;;;;;;;11.90;99.90;;;;;;5035689;28;20072;-63
2023/03/24 05:36:31;;;;;;;9.07;4.95;;;11.90;99.90;;;;;;5050321;28;19912;-69
2023/03/24 05:38:57;;;;;;;6.82;4.63;;;11.80;99.90;;;;;;5047013;28;20334;-69
2023/03/24 05:41:23;;;;;;;7.13;4.72;;;11.80;99.90;;;;;;5045554;28;20335;-69
2023/03/24 05:43:49;;;;;;;7.57;5.60;;;11.70;99.90;;;;;;5036031;28;20120;-67
2023/03/24 05:46:15;;;;;;;5.63;4.13;;;11.80;99.90;;;;;;5053684;28;20045;-75
2023/03/24 05:48:41;;;;;;;8.60;5.40;;;11.90;99.90;;;;;;5053795;28;20025;-69
2023/03/24 05:51:08;;;;;;;7.20;4.97;;;11.80;99.90;;;;;;5053680;28;20079;-69
2023/03/24 05:53:34;;;;;;;6.77;5.13;;;11.90;99.90;;;;;;5035651;28;20037;-71
2023/03/24 05:56:01;;;;;;;7.95;4.93;;;12.70;99.90;;;;;;5053991;28;20270;-67
2023/03/24 05:58:29;;;;;;;7.63;4.75;;;13.60;99.90;;;;;;5053530;28;20420;-66
2023/03/24 12:57:42;;;;;;;9.27;5.63;;;21.40;99.90;;;;;;5078446;27;20340;-70
2023/03/24 13:00:22;;;;;;;8.02;5.50;;;21.40;99.90;;;;;;5074964;28;20436;-71
2023/03/24 13:03:12;;;;;;;8.60;6.40;;;21.60;99.90;;;;;;5088088;28;20043;-71
2023/03/24 13:05:46;;;;;;;9.85;6.43;;;21.50;99.90;;;;;;5089133;28;20040;-71
2023/03/24 13:08:28;;;;;;;9.75;6.80;;;21.50;99.90;;;;;;5090137;28;20024;-71
2023/03/24 13:11:03;;;;;;;12.65;6.53;;;21.60;99.90;;;;;;5090137;28;20020;-65
2023/03/24 13:13:38;;;;;;;11.73;6.50;;;21.40;99.90;;;;;;5089665;28;20020;-72
2023/03/24 13:16:15;;;;;;;10.15;6.55;;;21.40;99.90;;;;;;5089765;28;20028;-72
2023/03/24 13:18:58;;;;;;;10.85;6.68;;;21.10;99.90;;;;;;5070298;28;20013;-72
2023/03/24 13:21:26;;;;;;;9.93;6.35;;;21.40;99.90;;;;;;5064821;28;20029;-73
2023/03/24 13:23:56;;;;;;;9.73;6.90;;;21.40;99.90;;;;;;5069923;28;20159;-74
2023/03/24 13:26:23;;;;;;;11.23;7.15;;;21.20;99.90;;;;;;5069170;28;20086;-73
2023/03/24 13:28:56;;;;;;;9.90;6.85;;;21.30;99.90;;;;;;5069306;28;20041;-72
2023/03/24 13:31:26;;;;;;;14.40;6.57;;;21.30;99.90;;;;;;5069499;28;20488;-72
2023/03/24 13:33:54;;;;;;;9.57;6.78;;;21.20;99.90;;;;;;5069770;28;20051;-73
2023/03/24 13:36:30;;;;;;;9.48;6.47;;;21.10;99.90;;;;;;5069103;28;20087;-72
2023/03/24 13:39:02;;;;;;;9.57;6.38;;;21.10;99.90;;;;;;5069725;28;20495;-68
2023/03/24 13:41:34;;;;;;;9.77;6.10;;;21.20;99.90;;;;;;5069823;28;20433;-73
2023/03/24 13:44:22;;;;;;;9.48;6.32;;;20.90;99.90;;;;;;5069502;28;20029;-73
2023/03/24 13:47:17;;;;;;;10.07;6.22;;;20.60;99.90;;;;;;5068430;28;20098;-72
2023/03/24 13:50:00;;;;;;;8.70;6.13;;;20.70;99.90;;;;;;5068988;28;20029;-72
2023/03/24 13:52:34;;;;;;;9.95;6.05;;;20.80;99.90;;;;;;5068840;28;20115;-73
2023/03/24 13:55:08;;;;;;;10.48;6.38;;;20.80;99.90;;;;;;5068529;28;20027;-72
2023/03/24 13:57:39;;;;;;;9.90;6.15;;;20.80;99.90;;;;;;5088785;28;20064;-73
2023/03/24 14:00:19;;;;;;;9.65;5.97;;;20.80;99.90;;;;;;5089416;28;20021;-73
2023/03/24 14:02:55;;;;;;;9.05;6.00;;;20.90;99.90;;;;;;5070635;28;20059;-73
2023/03/24 14:05:40;;;;;;;12.53;5.93;;;20.80;99.90;;;;;;5088874;28;20030;-72
2023/03/24 14:08:06;;;;;;;10.73;5.97;;;20.60;99.90;;;;;;5079259;28;20359;-73
2023/03/24 14:10:46;;;;;;;12.48;6.82;;;20.60;99.90;;;;;;5075311;28;20029;-72
2023/03/24 14:13:15;;;;;;;13.35;5.80;;;20.70;99.90;;;;;;5054171;28;20056;-71
2023/03/24 14:15:58;;;;;;;9.77;6.15;;;20.80;99.90;;;;;;5074949;28;20046;-72
2023/03/24 14:18:27;;;;;;;8.52;5.88;;;21.10;99.90;;;;;;5040200;28;20391;-72
2023/03/24 14:20:56;;;;;;;9.80;5.88;;;21.00;99.90;;;;;;5075046;28;20051;-73
2023/03/24 14:23:45;;;;;;;7.07;6.10;;;20.90;99.90;;;;;;5074981;28;20024;-73
2023/03/24 14:26:14;;;;;;;9.68;6.07;;;20.90;99.90;;;;;;5074319;28;20039;-72
2023/03/24 14:28:47;;;;;;;8.65;6.30;;;21.00;99.90;;;;;;5075044;28;20021;-73
2023/03/24 14:31:14;;;;;;;9.90;6.25;;;20.80;99.90;;;;;;5075370;28;20027;-72
2023/03/24 14:34:01;;;;;;;9.13;6.57;;;20.70;99.90;;;;;;5074950;28;20024;-71
2023/03/24 14:36:42;;;;;;;8.10;6.00;;;20.90;99.90;;;;;;5075312;28;20082;-72
2023/03/24 14:39:23;;;;;;;9.00;6.60;;;20.70;99.90;;;;;;5075415;28;20044;-71
2023/03/24 14:41:51;;;;;;;8.90;6.45;;;20.80;99.90;;;;;;5074899;28;20033;-72
2023/03/24 14:44:52;;;;;;;8.18;6.65;;;20.80;99.90;;;;;;5075101;28;20013;-70
2023/03/24 14:47:22;;;;;;;11.18;6.35;;;20.70;99.90;;;;;;5074766;28;20542;-70
2023/03/24 14:49:51;;;;;;;11.80;6.55;;;20.60;99.90;;;;;;5075204;28;20533;-71
2023/03/24 14:52:33;;;;;;;9.55;7.25;;;20.60;99.90;;;;;;5074468;28;20046;-71
2023/03/24 14:55:15;;;;;;;9.80;6.85;;;20.40;99.90;;;;;;5062313;28;20553;-68
2023/03/24 14:57:50;;;;;;;11.13;7.03;;;20.10;99.90;;;;;;5068066;28;20044;-66
2023/03/24 15:00:26;;;;;;;10.52;7.63;;;20.10;99.90;;;;;;5063090;28;20052;-71
2023/03/24 15:02:58;;;;;;;10.32;7.30;;;20.10;99.90;;;;;;5063378;28;20133;-72
2023/03/24 15:05:29;;;;;;;11.00;6.97;;;20.20;99.90;;;;;;5042751;28;20428;-69
2023/03/24 15:08:09;;;;;;;9.40;7.35;;;20.40;99.90;;;;;;5063148;28;20025;-71
2023/03/24 15:10:40;;;;;;;11.48;7.15;;;20.50;99.90;;;;;;5062165;28;20107;-70
2023/03/24 15:13:34;;;;;;;10.07;7.00;;;20.30;99.90;;;;;;5060646;28;20013;-65
2023/03/24 15:16:16;;;;;;;8.18;6.07;;;20.30;99.90;;;;;;5062158;28;20381;-66
2023/03/24 15:18:49;;;;;;;8.82;5.20;;;20.00;99.90;;;;;;5046249;28;20049;-68
2023/03/24 15:21:33;;;;;;;6.68;5.07;;;20.00;99.90;;;;;;5072205;28;20513;-70
2023/03/24 15:24:02;;;;;;;7.78;4.78;;;20.00;99.90;;;;;;5073699;28;20078;-70
2023/03/24 15:26:30;;;;;;;6.07;4.43;;;20.10;99.90;;;;;;5074551;28;20453;-69
2023/03/24 15:29:04;;;;;;;5.70;4.50;;;20.10;99.90;;;;;;5093506;28;20135;-72
2023/03/24 15:31:33;;;;;;;7.68;4.70;;;20.10;99.90;;;;;;5057060;28;20037;-72
2023/03/24 15:34:06;;;;;;;10.95;4.88;;;20.20;99.90;;;;;;5053163;28;20117;-72
2023/03/24 15:36:43;;;;;;;8.40;4.65;;;20.10;99.90;;;;;;5053282;28;20119;-69
2023/03/24 15:39:18;;;;;;;7.25;5.00;;;20.10;99.90;;;;;;5034948;28;20074;-70
2023/03/24 15:41:51;;;;;;;13.75;4.88;;;20.00;99.90;;;;;;5052461;28;20037;-71
2023/03/24 15:44:26;;;;;;;7.53;4.90;;;20.00;99.90;;;;;;5053279;28;20084;-70
2023/03/24 15:46:58;;;;;;;6.57;5.00;;;20.20;99.90;;;;;;5052499;28;20043;-70
2023/03/24 15:49:30;;;;;;;6.93;4.38;;;20.10;99.90;;;;;;5052712;28;20064;-71
2023/03/24 15:52:23;;;;;;;6.63;4.55;;;19.80;99.90;;;;;;5067692;28;20071;-71
2023/03/24 15:54:54;;;;;;;6.35;4.70;;;19.60;99.90;;;;;;5052374;28;20028;-71
2023/03/24 15:57:22;;;;;;;6.60;4.15;;;19.90;99.90;;;;;;5059808;28;20060;-71
2023/03/24 15:59:55;;;;;;;5.88;4.70;;;19.90;99.90;;;;;;5072438;28;20016;-71
2023/03/24 16:02:42;;;;;;;6.55;4.57;;;19.70;99.90;;;;;;5072397;28;20031;-70
2023/03/24 16:05:29;;;;;;;9.43;4.40;;;19.60;99.90;;;;;;5071518;28;20334;-71
2023/03/24 16:08:02;;;;;;;6.82;4.75;;;19.70;99.90;;;;;;5071920;28;20047;-71
2023/03/24 16:10:39;;;;;;;7.68;4.70;;;19.70;99.90;;;;;;5071883;28;20073;-70
2023/03/24 16:13:19;;;;;;;5.93;4.35;;;19.60;99.90;;;;;;5071631;28;20028;-69
2023/03/24 16:15:54;;;;;;;6.78;5.22;;;19.40;99.90;;;;;;5072001;28;20130;-70
2023/03/24 16:18:28;;;;;;;12.75;4.70;;;19.40;99.90;;;;;;5054867;28;20020;-69
2023/03/24 16:20:54;;;;;;;8.75;5.38;;;19.40;99.90;;;;;;5072230;28;20051;-69
2023/03/24 16:23:21;;;;;;;;;;;19.30;99.90;;;;;;5029037;28;20029;-64
2023/03/24 16:25:48;;;;;;;8.38;5.03;;;19.20;99.90;;;;;;5063276;28;19909;-64
2023/03/24 16:28:20;;;;;;;9.40;4.65;;;19.20;99.90;;;;;;5071750;28;20028;-66
2023/03/24 16:30:51;;;;;;;9.55;4.57;;;19.30;99.90;;;;;;5063004;28;20021;-65
2023/03/24 16:33:19;;;;;;;9.52;5.03;;;18.90;99.90;;;;;;5034338;28;20024;-70
2023/03/24 16:35:46;;;;;;;8.23;4.72;;;18.80;99.90;;;;;;5051806;28;20051;-70
2023/03/24 16:38:13;;;;;;;7.80;4.78;;;18.60;99.90;;;;;;5051936;28;20098;-71
2023/03/24 16:40:47;;;;;;;8.93;5.03;;;18.40;99.90;;;;;;5052024;28;20083;-70
2023/03/24 16:43:14;;;;;;;14.63;4.68;;;18.40;99.90;;;;;;5051866;28;20474;-70
2023/03/24 16:45:42;;;;;;;8.25;4.72;;;18.30;99.90;;;;;;5034317;28;20098;-70
2023/03/24 16:48:10;;;;;;;7.78;4.90;;;18.30;99.90;;;;;;5051720;28;20048;-69
2023/03/24 16:50:41;;;;;;;6.35;4.78;;;18.30;99.90;;;;;;5051593;28;20143;-70
2023/03/24 16:53:07;;;;;;;7.78;5.18;;;18.40;99.90;;;;;;5051649;28;20465;-72
2023/03/24 16:55:38;;;;;;;;;;;18.20;99.90;;;;;;5063713;28;20480;-71
2023/03/24 16:58:05;;;;;;;6.47;4.93;;;18.20;99.90;;;;;;5071511;28;20014;-71
2023/03/24 17:00:35;;;;;;;8.18;5.43;;;18.00;99.90;;;;;;5071701;28;20017;-69
2023/03/24 17:03:03;;;;;;;8.52;4.65;;;18.00;99.90;;;;;;5071335;28;20036;-70
2023/03/24 17:05:37;;;;;;;7.78;5.40;;;17.80;99.90;;;;;;5071604;28;20027;-72
2023/03/24 17:08:04;;;;;;;8.50;5.32;;;17.70;99.90;;;;;;5072065;28;20031;-73
2023/03/24 17:10:31;;;;;;;19.85;14.80;;;17.60;99.90;;;;;;5071284;28;20064;-70
2023/03/24 17:12:58;;;;;;;22.25;15.73;;;17.60;99.90;;;;;;5071078;28;20036;-70
2023/03/24 17:15:28;;;;;;;13.93;8.23;;;17.60;99.90;;;;;;5071910;28;20029;-72
2023/03/24 17:17:57;;;;;;;8.65;6.07;;;17.50;99.90;;;;;;5053739;28;20028;-71
2023/03/24 17:20:28;;;;;;;8.57;5.85;;;17.40;99.90;;;;;;5072070;28;20031;-70
2023/03/24 17:22:55;;;;;;;8.82;5.80;;;17.30;99.90;;;;;;5071819;28;20025;-71
2023/03/24 17:25:23;;;;;;;11.05;5.75;;;17.30;99.90;;;;;;5072124;28;20048;-71
2023/03/24 17:27:51;;;;;;;8.55;4.90;;;17.10;99.90;;;;;;5071627;28;20120;-70
2023/03/24 17:30:21;;;;;;;7.72;5.30;;;17.10;99.90;;;;;;5072253;28;20024;-72
2023/03/24 17:32:48;;;;;;;6.60;4.82;;;16.90;99.90;;;;;;5071728;28;20424;-73
2023/03/24 17:35:20;;;;;;;7.20;5.40;;;16.80;99.90;;;;;;5071531;28;20024;-70
2023/03/24 17:37:50;;;;;;;6.70;4.80;;;16.80;99.90;;;;;;5072333;28;20040;-72
2023/03/24 17:40:19;;;;;;;7.25;4.88;;;16.60;99.90;;;;;;5053185;28;20500;-73
2023/03/24 17:42:46;;;;;;;9.23;5.25;;;16.50;99.90;;;;;;5072726;28;20099;-71
2023/03/24 17:45:13;;;;;;;;;;;16.40;99.90;;;;;;5075998;28;20021;-73
2023/03/24 17:47:40;;;;;;;7.20;4.75;;;16.40;99.90;;;;;;5075388;28;19919;-70
2023/03/24 17:50:10;;;;;;;7.43;5.22;;;16.40;99.90;;;;;;5075443;28;20020;-72
2023/03/24 17:52:45;;;;;;;7.20;5.03;;;16.40;99.90;;;;;;5075116;28;20048;-70
2023/03/24 17:55:13;;;;;;;7.43;4.65;;;16.30;99.90;;;;;;5075220;28;20060;-71
2023/03/24 17:57:39;;;;;;;6.38;4.60;;;16.30;99.90;;;;;;5074506;28;20053;-69
2023/03/24 18:00:10;;;;;;;6.72;5.00;;;16.30;99.90;;;;;;5075321;28;20028;-71
2023/03/24 18:02:41;;;;;;;7.10;4.97;;;16.20;99.90;;;;;;5048109;28;20086;-70
2023/03/24 18:05:10;;;;;;;7.47;4.90;;;16.30;99.90;;;;;;5054857;28;20029;-70
2023/03/24 18:07:37;;;;;;;7.10;4.68;;;16.30;99.90;;;;;;5054716;28;20017;-71
2023/03/24 18:10:07;;;;;;;10.13;5.35;;;16.20;99.90;;;;;;5055112;28;20029;-69
2023/03/24 18:12:34;;;;;;;7.40;4.40;;;16.20;99.90;;;;;;5059856;28;20035;-65
2023/03/24 18:15:01;;;;;;;6.60;4.63;;;16.20;99.90;;;;;;5065505;28;20074;-66
2023/03/24 18:17:27;;;;;;;;;;;16.20;99.90;;;;;;5046268;28;20122;-65
2023/03/24 18:19:53;;;;;;;8.57;4.47;;;16.10;99.90;;;;;;5058481;28;20373;-70
2023/03/24 18:22:19;;;;;;;7.45;5.10;;;16.10;99.90;;;;;;5036997;28;20340;-70
2023/03/24 18:24:45;;;;;;;7.43;4.82;;;16.10;99.90;;;;;;5055282;28;20021;-69
2023/03/24 18:27:11;;;;;;;6.73;5.00;;;16.10;99.90;;;;;;5069096;28;20107;-70
2023/03/24 18:29:38;;;;;;;11.13;4.80;;;16.10;99.90;;;;;;5094821;28;20270;-68
2023/03/24 18:32:07;;;;;;;8.68;5.00;;;16.10;99.90;;;;;;5094763;28;20108;-71
2023/03/24 18:34:34;;;;;;;6.95;4.85;;;16.10;99.90;;;;;;5094525;28;20086;-71
2023/03/24 18:37:01;;;;;;;7.20;4.55;;;16.00;99.90;;;;;;5094970;28;20495;-70
2023/03/24 18:39:27;;;;;;;8.55;5.28;;;16.00;99.90;;;;;;5095271;28;20031;-71
2023/03/24 18:41:53;;;;;;;8.77;5.60;;;16.00;99.90;;;;;;5094091;28;20028;-69
2023/03/24 18:44:20;;;;;;;8.52;5.45;;;16.00;99.90;;;;;;5094218;28;20342;-70
2023/03/24 18:46:47;;;;;;;7.53;5.50;;;16.00;99.90;;;;;;5094240;28;20119;-70
2023/03/24 18:49:17;;;;;;;8.38;5.43;;;16.00;99.90;;;;;;5094761;28;20338;-70
2023/03/24 18:51:45;;;;;;;7.47;5.40;;;16.00;99.90;;;;;;5094390;28;20024;-70
2023/03/24 18:54:12;;;;;;;5.95;4.88;;;16.00;99.90;;;;;;5093652;28;20020;-69
2023/03/24 18:56:41;;;;;;;9.75;5.75;;;16.00;99.90;;;;;;5090784;28;20047;-69
2023/03/24 18:59:07;;;;;;;9.27;5.88;;;15.90;99.90;;;;;;5073771;28;20187;-67
2023/03/24 19:01:35;;;;;;;;;;;16.00;99.90;;;;;;5056259;28;20029;-65
2023/03/24 19:04:08;;;;;;;9.60;6.30;;;16.00;99.90;;;;;;5074259;28;19926;-67
2023/03/24 19:06:36;;;;;;;7.85;5.40;;;15.90;99.90;;;;;;5074324;28;20119;-68
2023/03/24 19:09:04;;;;;;;7.43;5.88;;;15.90;99.90;;;;;;5073674;28;20568;-66
2023/03/24 19:11:30;;;;;;;6.70;5.13;;;15.90;99.90;;;;;;5055581;28;20029;-65
2023/03/24 19:13:56;;;;;;;7.03;5.78;;;15.90;99.90;;;;;;5073465;28;20433;-65
2023/03/24 19:16:24;;;;;;;11.15;6.28;;;15.90;99.90;;;;;;5055678;28;20400;-66
2023/03/24 19:18:51;;;;;;;7.90;5.78;;;15.90;99.90;;;;;;5074351;28;20027;-69
2023/03/24 19:21:21;;;;;;;9.30;6.18;;;15.80;99.90;;;;;;5080650;28;20033;-67
2023/03/24 19:23:48;;;;;;;9.32;6.20;;;15.70;99.90;;;;;;5082614;28;20093;-65
2023/03/24 19:26:19;;;;;;;10.32;6.18;;;15.70;99.90;;;;;;5092065;28;20539;-70
2023/03/24 19:28:46;;;;;;;7.80;5.88;;;15.70;99.90;;;;;;5072947;28;20028;-65
2023/03/24 19:31:16;;;;;;;8.55;6.65;;;15.60;99.90;;;;;;5073476;28;20078;-65
2023/03/24 19:33:44;;;;;;;10.60;6.70;;;15.60;99.90;;;;;;5073543;28;20040;-65
2023/03/24 19:36:11;;;;;;;8.75;6.65;;;15.60;99.90;;;;;;5073264;28;20481;-65
2023/03/24 19:38:37;;;;;;;8.68;6.55;;;15.60;99.90;;;;;;5073370;28;20032;-71
2023/03/24 19:41:10;;;;;;;8.93;6.43;;;15.60;99.90;;;;;;5057879;28;20039;-74
2023/03/24 19:43:38;;;;;;;7.60;6.40;;;15.60;99.90;;;;;;5086208;28;20032;-72
2023/03/24 19:46:08;;;;;;;8.88;6.75;;;15.50;99.90;;;;;;5088092;28;20486;-74
2023/03/24 19:48:35;;;;;;;10.65;6.65;;;15.50;99.90;;;;;;5064334;28;20019;-69
2023/03/24 19:51:01;;;;;;;;;;;15.50;99.90;;;;;;5055125;28;20058;-74
2023/03/24 19:53:28;;;;;;;9.32;6.60;;;15.40;99.90;;;;;;5054168;28;20000;-72
2023/03/24 19:55:56;;;;;;;8.65;6.20;;;15.30;99.90;;;;;;5072125;28;20132;-72
2023/03/24 19:58:24;;;;;;;8.35;6.15;;;15.30;99.90;;;;;;5072599;28;20086;-72
2023/03/24 20:00:52;;;;;;;12.27;6.40;;;15.30;99.90;;;;;;5072158;28;20021;-74
2023/03/24 20:03:18;;;;;;;10.02;6.75;;;15.20;99.90;;;;;;5054068;28;20074;-73
2023/03/24 20:05:45;;;;;;;8.38;6.47;;;15.20;99.90;;;;;;5071687;28;20039;-71
2023/03/24 20:08:11;;;;;;;;;;;15.20;99.90;;;;;;5072120;28;20026;-73
2023/03/24 20:10:39;;;;;;;8.45;6.63;;;15.20;99.90;;;;;;5071540;28;19904;-72
2023/03/24 20:13:06;;;;;;;10.80;6.82;;;15.30;99.90;;;;;;5071696;28;20020;-71